sensor_id;sensor_type;location;lat;lon;timestamp;pressure;altitude;pressure_sealevel;temperature;humidity
8298;BME280;4187;42.778;23.242;2023-05-13T00:01:28;95731.16;;;10.31;100.00
8298;BME280;4187;42.778;23.242;2023-05-13T00:03:55;95730.44;;;10.29;100.00
8298;BME280;4187;42.778;23.242;2023-05-13T00:06:22;95733.78;;;10.31;100.00
8298;BME280;4187;42.778;23.242;2023-05-13T00:08:48;95743.66;;;10.29;100.00
8298;BME280;4187;42.778;23.242;2023-05-13T00:11:17;95748.47;;;10.24;100.00
8298;BME280;4187;42.778;23.242;2023-05-13T00:13:43;95755.56;;;10.24;100.00
8298;BME280;4187;42.778;23.242;2023-05-13T00:16:10;95757.19;;;10.25;100.00
8298;BME280;4187;42.778;23.242;2023-05-13T00:18:37;95758.78;;;10.27;100.00
8298;BME280;4187;42.778;23.242;2023-05-13T00:21:04;95753.22;;;10.30;100.00
8298;BME280;4187;42.778;23.242;2023-05-13T00:23:31;95749.75;;;10.30;100.00
8298;BME280;4187;42.778;23.242;2023-05-13T00:25:58;95761.09;;;10.20;100.00
8298;BME280;4187;42.778;23.242;2023-05-13T00:28:27;95750.84;;;10.27;100.00
8298;BME280;4187;42.778;23.242;2023-05-13T00:30:53;95745.28;;;10.30;100.00
8298;BME280;4187;42.778;23.242;2023-05-13T00:33:20;95744.84;;;10.25;100.00
8298;BME280;4187;42.778;23.242;2023-05-13T00:35:47;95732.66;;;10.24;100.00
8298;BME280;4187;42.778;23.242;2023-05-13T00:38:14;95727.19;;;10.16;100.00
8298;BME280;4187;42.778;23.242;2023-05-13T00:40:42;95728.31;;;10.13;100.00
8298;BME280;4187;42.778;23.242;2023-05-13T00:43:10;95729.03;;;10.04;100.00
8298;BME280;4187;42.778;23.242;2023-05-13T00:45:40;95733.22;;;10.07;100.00
8298;BME280;4187;42.778;23.242;2023-05-13T00:48:07;95738.50;;;10.07;100.00
8298;BME280;4187;42.778;23.242;2023-05-13T00:50:34;95723.38;;;10.09;100.00
8298;BME280;4187;42.778;23.242;2023-05-13T00:53:02;95731.81;;;10.03;100.00
8298;BME280;4187;42.778;23.242;2023-05-13T00:55:29;95732.13;;;10.09;100.00
8298;BME280;4187;42.778;23.242;2023-05-13T00:57:56;95736.91;;;10.15;100.00
8298;BME280;4187;42.778;23.242;2023-05-13T01:00:23;95737.53;;;10.08;100.00
8298;BME280;4187;42.778;23.242;2023-05-13T01:02:55;95736.81;;;10.06;100.00
8298;BME280;4187;42.778;23.242;2023-05-13T01:05:29;95731.94;;;10.01;100.00
8298;BME280;4187;42.778;23.242;2023-05-13T01:08:01;95747.75;;;10.01;100.00
8298;BME280;4187;42.778;23.242;2023-05-13T01:10:35;95749.88;;;10.07;100.00
8298;BME280;4187;42.778;23.242;2023-05-13T01:13:07;95746.84;;;10.12;100.00
8298;BME280;4187;42.778;23.242;2023-05-13T01:15:39;95746.16;;;10.10;100.00
8298;BME280;4187;42.778;23.242;2023-05-13T01:18:09;95755.75;;;10.11;100.00
8298;BME280;4187;42.778;23.242;2023-05-13T01:20:40;95746.84;;;10.12;100.00
8298;BME280;4187;42.778;23.242;2023-05-13T01:23:09;95750.72;;;10.08;100.00
8298;BME280;4187;42.778;23.242;2023-05-13T01:25:37;95731.25;;;9.99;100.00
8298;BME280;4187;42.778;23.242;2023-05-13T01:28:04;95678.16;;;9.62;100.00
8298;BME280;4187;42.778;23.242;2023-05-13T01:30:31;95760.75;;;10.14;100.00
8298;BME280;4187;42.778;23.242;2023-05-13T01:32:58;95756.31;;;10.14;100.00
8298;BME280;4187;42.778;23.242;2023-05-13T01:35:26;95749.25;;;10.15;100.00
8298;BME280;4187;42.778;23.242;2023-05-13T01:37:54;95751.41;;;10.10;100.00
8298;BME280;4187;42.778;23.242;2023-05-13T01:40:24;95742.56;;;10.11;100.00
8298;BME280;4187;42.778;23.242;2023-05-13T01:42:50;95733.03;;;9.99;100.00
8298;BME280;4187;42.778;23.242;2023-05-13T01:45:17;95736.97;;;10.04;100.00
8298;BME280;4187;42.778;23.242;2023-05-13T01:47:44;95738.31;;;9.99;100.00
8298;BME280;4187;42.778;23.242;2023-05-13T01:50:11;95746.91;;;10.01;100.00
8298;BME280;4187;42.778;23.242;2023-05-13T01:52:38;95743.44;;;10.00;100.00
8298;BME280;4187;42.778;23.242;2023-05-13T01:55:05;95737.34;;;10.00;100.00
8298;BME280;4187;42.778;23.242;2023-05-13T01:57:33;95739.50;;;9.95;100.00
8298;BME280;4187;42.778;23.242;2023-05-13T02:00:00;95736.19;;;9.93;100.00
8298;BME280;4187;42.778;23.242;2023-05-13T02:02:28;95734.53;;;9.92;100.00
8298;BME280;4187;42.778;23.242;2023-05-13T02:04:54;95739.06;;;9.90;100.00
8298;BME280;4187;42.778;23.242;2023-05-13T02:07:21;95745.06;;;9.92;100.00
8298;BME280;4187;42.778;23.242;2023-05-13T02:09:48;95747.59;;;9.73;100.00
8298;BME280;4187;42.778;23.242;2023-05-13T02:12:15;95701.03;;;9.41;100.00
8298;BME280;4187;42.778;23.242;2023-05-13T02:14:43;95754.50;;;9.53;100.00
8298;BME280;4187;42.778;23.242;2023-05-13T02:17:10;95734.28;;;9.22;100.00
8298;BME280;4187;42.778;23.242;2023-05-13T02:19:37;95752.94;;;9.30;100.00
8298;BME280;4187;42.778;23.242;2023-05-13T02:22:03;95751.97;;;9.31;100.00
8298;BME280;4187;42.778;23.242;2023-05-13T02:24:30;95757.22;;;9.31;100.00
8298;BME280;4187;42.778;23.242;2023-05-13T02:26:58;95754.94;;;9.37;100.00
8298;BME280;4187;42.778;23.242;2023-05-13T02:29:25;95752.75;;;9.42;100.00
8298;BME280;4187;42.778;23.242;2023-05-13T02:31:53;95757.81;;;9.34;100.00
8298;BME280;4187;42.778;23.242;2023-05-13T02:34:20;95756.38;;;9.30;100.00
8298;BME280;4187;42.778;23.242;2023-05-13T02:36:47;95764.03;;;9.33;100.00
8298;BME280;4187;42.778;23.242;2023-05-13T02:39:14;95776.97;;;9.36;100.00
8298;BME280;4187;42.778;23.242;2023-05-13T02:41:40;95780.28;;;9.38;100.00
8298;BME280;4187;42.778;23.242;2023-05-13T02:44:08;95783.53;;;9.42;100.00
8298;BME280;4187;42.778;23.242;2023-05-13T02:46:35;95778.63;;;9.37;100.00
8298;BME280;4187;42.778;23.242;2023-05-13T02:49:03;95781.03;;;9.40;100.00
8298;BME280;4187;42.778;23.242;2023-05-13T02:51:30;95780.16;;;9.51;100.00
8298;BME280;4187;42.778;23.242;2023-05-13T02:53:58;95779.75;;;9.55;100.00
8298;BME280;4187;42.778;23.242;2023-05-13T02:56:25;95782.34;;;9.67;100.00
8298;BME280;4187;42.778;23.242;2023-05-13T02:58:52;95778.22;;;9.74;100.00
8298;BME280;4187;42.778;23.242;2023-05-13T03:01:19;95779.00;;;9.65;100.00
8298;BME280;4187;42.778;23.242;2023-05-13T03:03:46;95788.47;;;9.67;100.00
8298;BME280;4187;42.778;23.242;2023-05-13T03:06:14;95783.38;;;9.75;100.00
8298;BME280;4187;42.778;23.242;2023-05-13T03:08:41;95788.41;;;9.78;100.00
8298;BME280;4187;42.778;23.242;2023-05-13T03:11:07;95750.38;;;9.60;100.00
8298;BME280;4187;42.778;23.242;2023-05-13T03:13:34;95788.84;;;9.83;100.00
8298;BME280;4187;42.778;23.242;2023-05-13T03:16:02;95766.88;;;9.73;100.00
8298;BME280;4187;42.778;23.242;2023-05-13T03:18:29;95793.28;;;9.83;100.00
8298;BME280;4187;42.778;23.242;2023-05-13T03:20:57;95779.78;;;9.76;100.00
8298;BME280;4187;42.778;23.242;2023-05-13T03:23:25;95791.34;;;9.85;100.00
8298;BME280;4187;42.778;23.242;2023-05-13T03:25:52;95794.44;;;9.90;100.00
8298;BME280;4187;42.778;23.242;2023-05-13T03:28:18;95783.09;;;9.89;100.00
8298;BME280;4187;42.778;23.242;2023-05-13T03:30:45;95796.97;;;9.91;100.00
8298;BME280;4187;42.778;23.242;2023-05-13T03:33:12;95794.88;;;9.95;100.00
8298;BME280;4187;42.778;23.242;2023-05-13T03:35:39;95785.25;;;9.84;100.00
8298;BME280;4187;42.778;23.242;2023-05-13T03:38:06;95793.28;;;10.03;100.00
8298;BME280;4187;42.778;23.242;2023-05-13T03:40:34;95802.88;;;10.04;100.00
8298;BME280;4187;42.778;23.242;2023-05-13T03:43:01;95811.63;;;10.05;100.00
8298;BME280;4187;42.778;23.242;2023-05-13T03:45:27;95803.72;;;10.05;100.00
8298;BME280;4187;42.778;23.242;2023-05-13T03:47:56;95816.88;;;10.16;100.00
8298;BME280;4187;42.778;23.242;2023-05-13T03:50:23;95812.56;;;10.15;100.00
8298;BME280;4187;42.778;23.242;2023-05-13T03:52:51;95806.31;;;10.16;100.00
8298;BME280;4187;42.778;23.242;2023-05-13T03:55:18;95816.63;;;10.19;100.00
8298;BME280;4187;42.778;23.242;2023-05-13T03:57:47;95819.94;;;10.21;100.00
8298;BME280;4187;42.778;23.242;2023-05-13T04:00:15;95826.50;;;10.27;100.00
8298;BME280;4187;42.778;23.242;2023-05-13T04:02:42;95814.69;;;10.21;100.00
8298;BME280;4187;42.778;23.242;2023-05-13T04:05:09;95826.06;;;10.22;100.00
8298;BME280;4187;42.778;23.242;2023-05-13T04:07:37;95838.97;;;10.25;100.00
8298;BME280;4187;42.778;23.242;2023-05-13T04:10:05;95842.25;;;10.17;100.00
8298;BME280;4187;42.778;23.242;2023-05-13T04:12:34;95842.25;;;10.17;100.00
8298;BME280;4187;42.778;23.242;2023-05-13T04:15:03;95848.97;;;10.21;100.00
8298;BME280;4187;42.778;23.242;2023-05-13T04:17:30;95857.31;;;10.26;100.00
8298;BME280;4187;42.778;23.242;2023-05-13T04:19:57;95855.84;;;10.33;100.00
8298;BME280;4187;42.778;23.242;2023-05-13T04:22:24;95850.31;;;10.36;100.00
8298;BME280;4187;42.778;23.242;2023-05-13T04:24:51;95857.84;;;10.41;100.00
8298;BME280;4187;42.778;23.242;2023-05-13T04:27:21;95851.19;;;10.46;100.00
8298;BME280;4187;42.778;23.242;2023-05-13T04:29:48;95862.47;;;10.48;100.00
8298;BME280;4187;42.778;23.242;2023-05-13T04:32:16;95863.75;;;10.54;100.00
8298;BME280;4187;42.778;23.242;2023-05-13T04:34:46;95862.00;;;10.64;100.00
8298;BME280;4187;42.778;23.242;2023-05-13T04:37:13;95865.47;;;10.64;100.00
8298;BME280;4187;42.778;23.242;2023-05-13T04:39:40;95862.69;;;10.66;100.00
8298;BME280;4187;42.778;23.242;2023-05-13T04:42:07;95861.91;;;10.75;100.00
8298;BME280;4187;42.778;23.242;2023-05-13T04:44:33;95854.09;;;10.64;100.00
8298;BME280;4187;42.778;23.242;2023-05-13T04:47:00;95862.94;;;10.63;100.00
8298;BME280;4187;42.778;23.242;2023-05-13T04:49:29;95860.91;;;10.66;100.00
8298;BME280;4187;42.778;23.242;2023-05-13T04:51:55;95862.03;;;10.73;100.00
8298;BME280;4187;42.778;23.242;2023-05-13T04:54:22;95861.41;;;10.81;100.00
8298;BME280;4187;42.778;23.242;2023-05-13T04:56:50;95861.00;;;10.86;100.00
8298;BME280;4187;42.778;23.242;2023-05-13T04:59:17;95849.00;;;10.81;100.00
8298;BME280;4187;42.778;23.242;2023-05-13T05:01:44;95854.63;;;10.98;100.00
8298;BME280;4187;42.778;23.242;2023-05-13T05:04:10;95862.19;;;11.12;100.00
8298;BME280;4187;42.778;23.242;2023-05-13T05:06:39;95863.34;;;11.19;100.00
8298;BME280;4187;42.778;23.242;2023-05-13T05:09:06;95869.34;;;11.21;100.00
8298;BME280;4187;42.778;23.242;2023-05-13T05:11:34;95867.38;;;11.23;100.00
8298;BME280;4187;42.778;23.242;2023-05-13T05:14:00;95872.00;;;11.30;100.00
8298;BME280;4187;42.778;23.242;2023-05-13T05:16:27;95871.34;;;11.38;100.00
8298;BME280;4187;42.778;23.242;2023-05-13T05:18:54;95867.84;;;11.37;100.00
8298;BME280;4187;42.778;23.242;2023-05-13T05:21:21;95873.31;;;11.46;100.00
8298;BME280;4187;42.778;23.242;2023-05-13T05:23:49;95882.78;;;11.58;100.00
8298;BME280;4187;42.778;23.242;2023-05-13T05:26:16;95879.84;;;11.61;100.00
8298;BME280;4187;42.778;23.242;2023-05-13T05:28:44;95877.28;;;11.70;100.00
8298;BME280;4187;42.778;23.242;2023-05-13T05:31:11;95870.72;;;11.74;100.00
8298;BME280;4187;42.778;23.242;2023-05-13T05:33:39;95873.53;;;11.82;100.00
8298;BME280;4187;42.778;23.242;2023-05-13T05:36:06;95870.91;;;11.92;100.00
8298;BME280;4187;42.778;23.242;2023-05-13T05:38:33;95882.44;;;12.10;100.00
8298;BME280;4187;42.778;23.242;2023-05-13T05:41:03;95879.53;;;12.13;100.00
8298;BME280;4187;42.778;23.242;2023-05-13T05:43:30;95877.28;;;12.18;100.00
8298;BME280;4187;42.778;23.242;2023-05-13T05:45:57;95880.34;;;12.23;100.00
8298;BME280;4187;42.778;23.242;2023-05-13T05:48:23;95886.19;;;12.36;100.00
8298;BME280;4187;42.778;23.242;2023-05-13T05:50:50;95893.41;;;12.44;100.00
8298;BME280;4187;42.778;23.242;2023-05-13T05:53:17;95893.41;;;12.44;97.91
8298;BME280;4187;42.778;23.242;2023-05-13T05:55:45;95899.28;;;12.47;97.44
8298;BME280;4187;42.778;23.242;2023-05-13T05:58:15;95906.25;;;12.48;96.72
8298;BME280;4187;42.778;23.242;2023-05-13T06:00:43;95900.56;;;12.43;97.35
8298;BME280;4187;42.778;23.242;2023-05-13T06:03:10;95899.28;;;12.47;96.42
8298;BME280;4187;42.778;23.242;2023-05-13T06:05:37;95903.44;;;12.59;95.55
8298;BME280;4187;42.778;23.242;2023-05-13T06:08:04;95896.47;;;12.58;96.24
8298;BME280;4187;42.778;23.242;2023-05-13T06:10:31;95897.03;;;12.62;95.12
8298;BME280;4187;42.778;23.242;2023-05-13T06:12:58;95898.97;;;12.70;95.27
8298;BME280;4187;42.778;23.242;2023-05-13T06:15:26;95901.47;;;12.71;95.45
8298;BME280;4187;42.778;23.242;2023-05-13T06:17:53;95898.94;;;12.79;95.19
8298;BME280;4187;42.778;23.242;2023-05-13T06:20:21;95901.56;;;12.89;94.94
8298;BME280;4187;42.778;23.242;2023-05-13T06:22:48;95906.31;;;12.85;90.10
8298;BME280;4187;42.778;23.242;2023-05-13T06:25:15;95905.63;;;12.83;88.71
8298;BME280;4187;42.778;23.242;2023-05-13T06:27:41;95908.56;;;12.80;87.98
8298;BME280;4187;42.778;23.242;2023-05-13T06:30:08;95896.56;;;12.76;90.56
8298;BME280;4187;42.778;23.242;2023-05-13T06:32:37;95896.56;;;12.86;90.45
8298;BME280;4187;42.778;23.242;2023-05-13T06:35:05;95904.06;;;12.90;92.53
8298;BME280;4187;42.778;23.242;2023-05-13T06:37:32;95911.72;;;13.03;91.81
8298;BME280;4187;42.778;23.242;2023-05-13T06:39:59;95911.31;;;13.07;90.88
8298;BME280;4187;42.778;23.242;2023-05-13T06:42:26;95906.69;;;13.09;91.30
8298;BME280;4187;42.778;23.242;2023-05-13T06:44:53;95896.94;;;13.10;92.07
8298;BME280;4187;42.778;23.242;2023-05-13T06:47:20;95905.84;;;13.09;90.39
8298;BME280;4187;42.778;23.242;2023-05-13T06:49:48;95907.94;;;13.05;90.57
8298;BME280;4187;42.778;23.242;2023-05-13T06:52:14;95903.47;;;13.15;92.49
8298;BME280;4187;42.778;23.242;2023-05-13T06:54:41;95905.25;;;13.25;92.36
8298;BME280;4187;42.778;23.242;2023-05-13T06:57:08;95900.88;;;13.33;89.74
8298;BME280;4187;42.778;23.242;2023-05-13T06:59:35;95906.44;;;13.40;88.95
8298;BME280;4187;42.778;23.242;2023-05-13T07:02:02;95913.25;;;13.42;89.27
8298;BME280;4187;42.778;23.242;2023-05-13T07:04:29;95902.91;;;13.49;90.81
8298;BME280;4187;42.778;23.242;2023-05-13T07:06:57;95910.63;;;13.60;92.14
8298;BME280;4187;42.778;23.242;2023-05-13T07:09:24;95915.75;;;13.71;90.30
8298;BME280;4187;42.778;23.242;2023-05-13T07:11:51;95920.34;;;13.78;91.10
8298;BME280;4187;42.778;23.242;2023-05-13T07:14:18;95923.59;;;13.90;89.09
8298;BME280;4187;42.778;23.242;2023-05-13T07:16:45;95928.69;;;14.01;88.58
8298;BME280;4187;42.778;23.242;2023-05-13T07:19:12;95926.78;;;14.11;89.13
8298;BME280;4187;42.778;23.242;2023-05-13T07:21:39;95921.06;;;14.16;87.06
8298;BME280;4187;42.778;23.242;2023-05-13T07:24:07;95937.28;;;14.30;87.12
8298;BME280;4187;42.778;23.242;2023-05-13T07:26:34;95933.75;;;14.40;87.59
8298;BME280;4187;42.778;23.242;2023-05-13T07:29:01;95933.06;;;14.55;88.43
8298;BME280;4187;42.778;23.242;2023-05-13T07:31:29;95926.84;;;14.64;88.82
8298;BME280;4187;42.778;23.242;2023-05-13T07:33:56;95923.88;;;14.67;82.75
8298;BME280;4187;42.778;23.242;2023-05-13T07:36:22;95923.16;;;14.83;85.05
8298;BME280;4187;42.778;23.242;2023-05-13T07:38:49;95922.41;;;14.73;82.92
8298;BME280;4187;42.778;23.242;2023-05-13T07:41:17;95927.56;;;14.92;82.44
8298;BME280;4187;42.778;23.242;2023-05-13T07:43:44;95918.91;;;15.16;85.27
8298;BME280;4187;42.778;23.242;2023-05-13T07:46:11;95916.84;;;15.35;85.30
8298;BME280;4187;42.778;23.242;2023-05-13T07:48:38;95915.84;;;15.36;85.79
8298;BME280;4187;42.778;23.242;2023-05-13T07:51:05;95928.25;;;15.53;85.66
8298;BME280;4187;42.778;23.242;2023-05-13T07:53:32;95923.19;;;15.76;85.91
8298;BME280;4187;42.778;23.242;2023-05-13T07:56:00;95929.72;;;15.90;88.38
8298;BME280;4187;42.778;23.242;2023-05-13T07:58:28;95916.13;;;16.09;88.66
8298;BME280;4187;42.778;23.242;2023-05-13T08:00:55;95912.53;;;16.26;91.08
8298;BME280;4187;42.778;23.242;2023-05-13T08:03:21;95915.03;;;16.36;90.23
8298;BME280;4187;42.778;23.242;2023-05-13T08:05:48;95915.06;;;16.68;90.26
8298;BME280;4187;42.778;23.242;2023-05-13T08:08:15;95922.25;;;16.92;89.71
8298;BME280;4187;42.778;23.242;2023-05-13T08:10:42;95915.22;;;17.07;87.39
8298;BME280;4187;42.778;23.242;2023-05-13T08:13:09;95913.69;;;17.28;88.46
8298;BME280;4187;42.778;23.242;2023-05-13T08:15:37;95908.78;;;17.48;91.82
8298;BME280;4187;42.778;23.242;2023-05-13T08:18:05;95921.50;;;17.54;82.58
8298;BME280;4187;42.778;23.242;2023-05-13T08:20:34;95918.81;;;17.54;80.89
8298;BME280;4187;42.778;23.242;2023-05-13T08:23:01;95918.13;;;17.60;82.30
8298;BME280;4187;42.778;23.242;2023-05-13T08:25:28;95909.38;;;17.74;83.25
8298;BME280;4187;42.778;23.242;2023-05-13T08:27:56;95911.34;;;17.88;81.70
8298;BME280;4187;42.778;23.242;2023-05-13T08:30:22;95691.59;;;16.57;84.52
8298;BME280;4187;42.778;23.242;2023-05-13T08:32:51;95903.13;;;17.90;84.29
8298;BME280;4187;42.778;23.242;2023-05-13T08:35:18;95898.94;;;17.96;84.00
8298;BME280;4187;42.778;23.242;2023-05-13T08:37:44;95907.25;;;18.01;82.82
8298;BME280;4187;42.778;23.242;2023-05-13T08:40:11;95906.31;;;17.93;82.38
8298;BME280;4187;42.778;23.242;2023-05-13T08:42:41;95903.84;;;18.15;85.82
8298;BME280;4187;42.778;23.242;2023-05-13T08:45:10;95899.00;;;18.49;88.04
8298;BME280;4187;42.778;23.242;2023-05-13T08:47:43;95895.16;;;18.66;82.20
8298;BME280;4187;42.778;23.242;2023-05-13T08:50:13;95886.13;;;18.67;85.40
8298;BME280;4187;42.778;23.242;2023-05-13T08:52:40;95883.00;;;18.33;86.41
8298;BME280;4187;42.778;23.242;2023-05-13T08:55:08;95881.91;;;18.27;89.26
8298;BME280;4187;42.778;23.242;2023-05-13T08:57:35;95886.97;;;17.91;88.42
8298;BME280;4187;42.778;23.242;2023-05-13T09:00:02;95884.88;;;18.02;88.86
8298;BME280;4187;42.778;23.242;2023-05-13T09:02:29;95872.75;;;18.22;87.32
8298;BME280;4187;42.778;23.242;2023-05-13T09:05:00;95865.75;;;18.21;86.87
8298;BME280;4187;42.778;23.242;2023-05-13T09:07:30;95855.72;;;18.45;90.90
8298;BME280;4187;42.778;23.242;2023-05-13T09:09:57;95862.00;;;18.75;87.66
8298;BME280;4187;42.778;23.242;2023-05-13T09:12:44;95866.50;;;18.97;86.89
8298;BME280;4187;42.778;23.242;2023-05-13T09:15:13;95876.94;;;18.84;83.91
8298;BME280;4187;42.778;23.242;2023-05-13T09:17:40;95873.22;;;18.71;84.81
8298;BME280;4187;42.778;23.242;2023-05-13T09:20:11;95871.53;;;18.55;84.09
8298;BME280;4187;42.778;23.242;2023-05-13T09:22:45;95874.13;;;18.40;84.43
8298;BME280;4187;42.778;23.242;2023-05-13T09:25:13;95875.75;;;18.49;86.60
8298;BME280;4187;42.778;23.242;2023-05-13T09:27:41;95880.94;;;18.88;87.32
8298;BME280;4187;42.778;23.242;2023-05-13T09:30:09;95874.63;;;19.19;84.60
8298;BME280;4187;42.778;23.242;2023-05-13T09:32:36;95871.53;;;19.44;84.78
8298;BME280;4187;42.778;23.242;2023-05-13T09:35:08;95869.53;;;19.82;88.08
8298;BME280;4187;42.778;23.242;2023-05-13T09:37:35;95857.78;;;19.98;86.53
8298;BME280;4187;42.778;23.242;2023-05-13T09:40:05;95861.06;;;20.29;87.03
8298;BME280;4187;42.778;23.242;2023-05-13T09:42:32;95853.72;;;20.59;85.63
8298;BME280;4187;42.778;23.242;2023-05-13T09:45:03;95865.31;;;20.87;85.26
8298;BME280;4187;42.778;23.242;2023-05-13T09:47:31;95862.38;;;21.03;82.70
8298;BME280;4187;42.778;23.242;2023-05-13T09:50:01;95860.19;;;21.13;85.04
8298;BME280;4187;42.778;23.242;2023-05-13T09:52:29;95865.19;;;21.16;82.07
8298;BME280;4187;42.778;23.242;2023-05-13T09:54:56;95864.34;;;21.16;81.46
8298;BME280;4187;42.778;23.242;2023-05-13T09:57:25;95843.84;;;21.08;84.12
8298;BME280;4187;42.778;23.242;2023-05-13T09:59:56;95857.72;;;21.46;84.47
8298;BME280;4187;42.778;23.242;2023-05-13T10:02:23;95849.84;;;21.79;85.29
8298;BME280;4187;42.778;23.242;2023-05-13T10:04:51;95848.00;;;21.86;81.44
8298;BME280;4187;42.778;23.242;2023-05-13T10:07:20;95797.66;;;21.60;83.08
8298;BME280;4187;42.778;23.242;2023-05-13T10:09:50;95847.38;;;21.84;80.94
8298;BME280;4187;42.778;23.242;2023-05-13T10:12:19;95834.81;;;21.16;81.98
8298;BME280;4187;42.778;23.242;2023-05-13T10:14:48;95833.50;;;20.56;83.29
8298;BME280;4187;42.778;23.242;2023-05-13T10:17:18;95837.53;;;20.24;82.75
8298;BME280;4187;42.778;23.242;2023-05-13T10:19:47;95839.50;;;20.01;85.19
8298;BME280;4187;42.778;23.242;2023-05-13T10:22:14;95834.97;;;20.02;85.01
8298;BME280;4187;42.778;23.242;2023-05-13T10:24:42;95822.81;;;20.42;88.70
8298;BME280;4187;42.778;23.242;2023-05-13T10:27:10;95826.50;;;20.83;87.08
8298;BME280;4187;42.778;23.242;2023-05-13T10:29:38;95818.97;;;21.00;88.26
8298;BME280;4187;42.778;23.242;2023-05-13T10:32:07;95827.53;;;21.10;82.54
8298;BME280;4187;42.778;23.242;2023-05-13T10:34:36;95813.78;;;21.19;84.46
8298;BME280;4187;42.778;23.242;2023-05-13T10:37:27;95825.91;;;21.50;84.08
8298;BME280;4187;42.778;23.242;2023-05-13T10:40:11;95818.22;;;21.81;79.83
8298;BME280;4187;42.778;23.242;2023-05-13T10:42:46;95821.28;;;21.71;79.12
8298;BME280;4187;42.778;23.242;2023-05-13T10:45:17;95819.13;;;21.94;83.97
8298;BME280;4187;42.778;23.242;2023-05-13T10:47:49;95822.75;;;22.34;82.36
8298;BME280;4187;42.778;23.242;2023-05-13T10:50:23;95829.88;;;22.81;82.69
8298;BME280;4187;42.778;23.242;2023-05-13T10:52:55;95825.69;;;23.11;81.69
8298;BME280;4187;42.778;23.242;2023-05-13T10:55:22;95832.09;;;23.17;77.08
8298;BME280;4187;42.778;23.242;2023-05-13T10:58:06;95824.28;;;22.89;75.09
8298;BME280;4187;42.778;23.242;2023-05-13T11:00:34;95821.78;;;22.75;77.40
8298;BME280;4187;42.778;23.242;2023-05-13T11:03:27;95822.97;;;22.39;76.17
8298;BME280;4187;42.778;23.242;2023-05-13T11:05:59;95828.53;;;22.25;75.92
8298;BME280;4187;42.778;23.242;2023-05-13T11:08:35;95820.88;;;22.35;80.05
8298;BME280;4187;42.778;23.242;2023-05-13T11:11:02;95823.00;;;22.59;75.27
8298;BME280;4187;42.778;23.242;2023-05-13T11:13:42;95796.03;;;22.26;74.05
8298;BME280;4187;42.778;23.242;2023-05-13T11:16:12;95805.69;;;22.01;73.45
8298;BME280;4187;42.778;23.242;2023-05-13T11:18:40;95788.53;;;21.89;75.26
8298;BME280;4187;42.778;23.242;2023-05-13T11:21:07;95781.53;;;22.08;76.60
8298;BME280;4187;42.778;23.242;2023-05-13T11:23:50;95794.00;;;22.48;76.98
8298;BME280;4187;42.778;23.242;2023-05-13T11:26:17;95794.88;;;22.81;75.36
8298;BME280;4187;42.778;23.242;2023-05-13T11:28:56;95792.78;;;23.16;76.94
8298;BME280;4187;42.778;23.242;2023-05-13T11:31:26;95798.06;;;23.55;70.45
8298;BME280;4187;42.778;23.242;2023-05-13T11:34:10;95792.16;;;23.14;68.50
8298;BME280;4187;42.778;23.242;2023-05-13T11:36:38;95781.59;;;22.93;71.67
8298;BME280;4187;42.778;23.242;2023-05-13T11:39:07;95783.06;;;22.89;69.33
8298;BME280;4187;42.778;23.242;2023-05-13T11:41:38;95780.34;;;22.56;68.84
8298;BME280;4187;42.778;23.242;2023-05-13T11:44:05;95790.50;;;22.41;70.60
8298;BME280;4187;42.778;23.242;2023-05-13T11:46:32;95777.84;;;22.41;72.43
8298;BME280;4187;42.778;23.242;2023-05-13T11:48:59;95784.69;;;22.50;70.59
8298;BME280;4187;42.778;23.242;2023-05-13T11:51:27;95774.56;;;22.52;72.39
8298;BME280;4187;42.778;23.242;2023-05-13T11:54:00;95778.94;;;22.67;73.16
8298;BME280;4187;42.778;23.242;2023-05-13T11:56:28;95774.38;;;22.67;69.92
8298;BME280;4187;42.778;23.242;2023-05-13T11:58:55;95772.94;;;22.78;71.44
8298;BME280;4187;42.778;23.242;2023-05-13T12:01:38;95764.63;;;22.79;69.55
8298;BME280;4187;42.778;23.242;2023-05-13T12:04:05;95763.59;;;23.00;71.15
8298;BME280;4187;42.778;23.242;2023-05-13T12:06:33;95771.22;;;23.16;70.47
8298;BME280;4187;42.778;23.242;2023-05-13T12:09:04;95759.16;;;23.32;66.29
8298;BME280;4187;42.778;23.242;2023-05-13T12:11:31;95760.34;;;23.55;65.88
8298;BME280;4187;42.778;23.242;2023-05-13T12:13:58;95764.63;;;23.76;69.86
8298;BME280;4187;42.778;23.242;2023-05-13T12:16:25;95744.84;;;23.95;69.35
8298;BME280;4187;42.778;23.242;2023-05-13T12:18:58;95760.69;;;24.48;68.67
8298;BME280;4187;42.778;23.242;2023-05-13T12:21:29;95763.56;;;24.84;62.54
8298;BME280;4187;42.778;23.242;2023-05-13T12:23:58;95752.19;;;24.75;61.99
8298;BME280;4187;42.778;23.242;2023-05-13T12:26:25;95754.47;;;24.72;59.62
8298;BME280;4187;42.778;23.242;2023-05-13T12:28:56;95748.88;;;24.73;65.09
8298;BME280;4187;42.778;23.242;2023-05-13T12:31:23;95744.50;;;24.48;62.15
8298;BME280;4187;42.778;23.242;2023-05-13T12:33:50;95740.34;;;24.20;64.21
8298;BME280;4187;42.778;23.242;2023-05-13T12:36:18;95738.81;;;24.31;64.89
8298;BME280;4187;42.778;23.242;2023-05-13T12:38:56;95737.63;;;24.52;65.18
8298;BME280;4187;42.778;23.242;2023-05-13T12:41:26;95741.13;;;24.77;59.75
8298;BME280;4187;42.778;23.242;2023-05-13T12:43:57;95733.47;;;24.80;61.50
8298;BME280;4187;42.778;23.242;2023-05-13T12:46:25;95733.84;;;24.84;61.86
8298;BME280;4187;42.778;23.242;2023-05-13T12:48:54;95742.72;;;24.91;60.85
8298;BME280;4187;42.778;23.242;2023-05-13T12:51:21;95731.53;;;24.87;61.97
8298;BME280;4187;42.778;23.242;2023-05-13T12:53:48;95728.63;;;24.89;63.03
8298;BME280;4187;42.778;23.242;2023-05-13T12:56:16;95727.09;;;24.93;62.85
8298;BME280;4187;42.778;23.242;2023-05-13T12:58:44;95737.84;;;24.81;61.37
8298;BME280;4187;42.778;23.242;2023-05-13T13:01:11;95691.09;;;24.31;62.27
8298;BME280;4187;42.778;23.242;2023-05-13T13:03:38;95731.84;;;24.48;63.50
8298;BME280;4187;42.778;23.242;2023-05-13T13:06:05;95728.31;;;24.48;63.80
8298;BME280;4187;42.778;23.242;2023-05-13T13:08:32;95727.56;;;24.41;62.56
8298;BME280;4187;42.778;23.242;2023-05-13T13:10:59;95716.97;;;24.39;64.30
8298;BME280;4187;42.778;23.242;2023-05-13T13:13:26;95712.47;;;24.33;61.28